East Schodack, NY (12063)

10:28 AM EST on January 26, 2015 (GMT -0500)
Town Park | Change Station
CLOSE
Current Station
Personal Weather Station
Location: East Greenbush, NY
Elevation: 554 ft
Nearby Weather Stations
Active Advisory: Winter Storm Warning

Elev 554 ft 42.60 °N, 73.67 °W | Updated 8 seconds ago

Overcast
Overcast
11.5 °F
Feels Like 1 °F
N
7.0
Wind Variable Wind from NW
Gusts 8.1 mph

Today
High -- | Low -- °F
--% Chance of Precip.
Yesterday
High -- | Low -- °F
Precip. -- in
7:14 AM 4:59 PM
Waxing Crescent, 44% visible
Pressure 30.14 in
Visibility 10.0 miles
Clouds Mostly Cloudy 6000 ft
Overcast 8000 ft
Windchill 1 °F
Dew Point 4 °F
Humidity 70%
Rainfall 0.00 in
Snow Depth Not available.
UV 0 out of 12
Pollen .10 out of 12
Air Quality Not available.
Flu Activity Not available.
METAR KALB 261451Z 03009KT 10SM BKN060 OVC080 M12/M19 A3012 RMK AO2 SLP205 VIRGA W-N-E T11171189 51004

More Conditions Fewer Conditions

Pressure 30.14 in
Visibility 10.0 miles
Clouds Mostly Cloudy 6000 ft
Overcast 8000 ft
Windchill 1 °F
Dew Point 4 °F
Humidity 70%
Rainfall 0.00 in
Snow Depth Not available.
UV 0 out of 12
Pollen .10 out of 12
Air Quality Not available.
Flu Activity Not available.
METAR KALB 261451Z 03009KT 10SM BKN060 OVC080 M12/M19 A3012 RMK AO2 SLP205 VIRGA W-N-E T11171189 51004

More Conditions Fewer Conditions

10-Day Weather Forecast

Almanac

Astronomy

Jan. 26, 2015 Rise Set
Actual Time
Civil Twilight
Nautical Twilight
Astronomical Twilight
Moon
Length of Visible Light
Length of Day
Tomorrow will be .
, % of the Moon is Illuminated

Today's Extremes

State Highs State Lows

Community

WunderPhotos

Upload Photos

1,790,241 photos uploaded!

WunderBlogs® & News

Nearby

Air Quality

  Air Quality AQ Index Pollutant
Not available.

Snow Depth

Station Depth Elevation

Earthquake Activity

City Distance Mag. Time & Date
Minimum magnitude displayed is 2.5.

Coastal Water Temperatures

Place Temperature

Nearby Weather Stations